createdAt,value
2019-04-07T00:02:09.184Z,11.40
2019-04-07T00:04:38.634Z,11.40
2019-04-07T00:07:08.099Z,11.40
2019-04-07T00:09:37.330Z,11.40
2019-04-07T00:12:07.059Z,11.40
2019-04-07T00:14:36.390Z,11.40
2019-04-07T00:17:05.768Z,11.30
2019-04-07T00:19:35.081Z,11.20
2019-04-07T00:22:04.830Z,11.10
2019-04-07T00:24:34.279Z,11.10
2019-04-07T00:27:04.256Z,11.00
2019-04-07T00:29:33.562Z,11.00
2019-04-07T00:32:02.802Z,11.00
2019-04-07T00:34:32.221Z,11.00
2019-04-07T00:37:01.574Z,11.00
2019-04-07T00:39:31.333Z,11.00
2019-04-07T00:42:00.653Z,10.90
2019-04-07T00:44:30.046Z,10.90
2019-04-07T00:46:59.796Z,10.90
2019-04-07T00:49:29.680Z,10.90
2019-04-07T00:52:00.498Z,10.80
2019-04-07T00:54:30.547Z,10.80
2019-04-07T00:56:59.876Z,10.70
2019-04-07T00:59:29.596Z,10.70
2019-04-07T01:01:58.981Z,10.70
2019-04-07T01:04:28.573Z,10.60
2019-04-07T01:06:59.149Z,10.60
2019-04-07T01:09:28.799Z,10.50
2019-04-07T01:11:58.611Z,10.50
2019-04-07T01:14:27.998Z,10.50
2019-04-07T01:16:57.325Z,10.50
2019-04-07T01:19:26.666Z,10.40
2019-04-07T01:21:55.918Z,10.40
2019-04-07T01:24:25.293Z,10.30
2019-04-07T01:26:54.713Z,10.30
2019-04-07T01:29:24.494Z,10.30
2019-04-07T01:31:53.905Z,10.30
2019-04-07T01:34:23.969Z,10.20
2019-04-07T01:36:53.527Z,10.20
2019-04-07T01:39:22.979Z,10.20
2019-04-07T01:42:17.213Z,10.20
2019-04-07T01:45:03.947Z,10.20
2019-04-07T01:47:43.101Z,10.20
2019-04-07T01:50:24.536Z,10.20
2019-04-07T01:52:59.910Z,10.10
2019-04-07T01:55:47.414Z,10.10
2019-04-07T01:58:26.416Z,10.00
2019-04-07T02:01:19.453Z,10.00
2019-04-07T02:04:06.742Z,9.90
2019-04-07T02:06:56.395Z,9.90
2019-04-07T02:09:33.708Z,9.80
2019-04-07T02:12:17.084Z,9.80
2019-04-07T02:15:00.013Z,9.70
2019-04-07T02:17:48.072Z,9.70
2019-04-07T02:21:19.656Z,9.70
2019-04-07T02:24:09.094Z,9.70
2019-04-07T02:27:06.332Z,9.70
2019-04-07T02:29:53.234Z,9.70
2019-04-07T02:32:44.244Z,9.70
2019-04-07T02:35:41.884Z,9.70
2019-04-07T02:38:39.097Z,9.60
2019-04-07T02:41:34.518Z,9.60
2019-04-07T02:44:22.067Z,9.60
2019-04-07T02:46:58.813Z,9.50
2019-04-07T02:49:37.966Z,9.40
2019-04-07T02:52:14.619Z,9.40
2019-04-07T02:55:02.555Z,9.50
2019-04-07T02:57:40.611Z,9.40
2019-04-07T03:00:22.350Z,9.40
2019-04-07T03:03:20.065Z,9.40
2019-04-07T03:06:03.626Z,9.40
2019-04-07T03:08:50.879Z,9.40
2019-04-07T03:11:46.763Z,9.40
2019-04-07T03:14:23.470Z,9.40
2019-04-07T03:17:02.351Z,9.40
2019-04-07T03:19:50.764Z,9.30
2019-04-07T03:22:36.757Z,9.20
2019-04-07T03:25:20.657Z,9.10
2019-04-07T03:28:01.002Z,9.10
2019-04-07T03:30:54.162Z,9.00
2019-04-07T03:33:33.450Z,9.00
2019-04-07T03:36:29.541Z,9.00
2019-04-07T03:39:19.114Z,9.00
2019-04-07T03:41:59.359Z,9.10
2019-04-07T03:44:47.594Z,9.10
2019-04-07T03:47:26.868Z,9.10
2019-04-07T03:50:04.726Z,9.00
2019-04-07T03:52:46.927Z,9.00
2019-04-07T03:55:36.742Z,8.90
2019-04-07T03:58:19.570Z,8.80
2019-04-07T04:01:16.184Z,8.80
2019-04-07T04:03:53.581Z,8.80
2019-04-07T04:06:42.105Z,8.80
2019-04-07T04:09:19.091Z,8.80
2019-04-07T04:11:56.920Z,8.80
2019-04-07T04:14:31.130Z,8.70
2019-04-07T04:17:00.487Z,8.60
2019-04-07T04:19:30.200Z,8.50
2019-04-07T04:21:59.524Z,8.50
2019-04-07T04:24:28.815Z,8.40
2019-04-07T04:26:59.141Z,8.40
2019-04-07T04:29:28.547Z,8.30
2019-04-07T04:31:57.774Z,8.30
2019-04-07T04:34:27.191Z,8.30
2019-04-07T04:36:56.542Z,8.30
2019-04-07T04:39:25.891Z,8.30
2019-04-07T04:41:55.673Z,8.40
2019-04-07T04:44:25.679Z,8.40
2019-04-07T04:46:56.167Z,8.30
2019-04-07T04:49:26.797Z,8.30
2019-04-07T04:51:57.102Z,8.30
2019-04-07T04:54:26.526Z,8.30
2019-04-07T04:56:55.814Z,8.40
2019-04-07T04:59:25.768Z,8.40
2019-04-07T05:01:55.413Z,8.40
2019-04-07T05:04:24.663Z,8.40
2019-04-07T05:06:54.194Z,8.40
2019-04-07T05:09:38.789Z,8.40
2019-04-07T05:11:56.705Z,8.40
2019-04-07T05:14:25.956Z,8.50
2019-04-07T05:16:55.967Z,8.50
2019-04-07T05:19:26.097Z,8.50
2019-04-07T05:21:55.873Z,8.50
2019-04-07T05:24:25.847Z,8.50
2019-04-07T05:26:55.779Z,8.50
2019-04-07T05:29:25.730Z,8.50
2019-04-07T05:31:55.722Z,8.60
2019-04-07T05:34:25.718Z,8.60
2019-04-07T05:36:55.333Z,8.70
2019-04-07T05:39:25.780Z,8.70
2019-04-07T05:41:55.209Z,8.80
2019-04-07T05:44:24.517Z,8.80
2019-04-07T05:46:53.825Z,8.80
2019-04-07T05:49:24.285Z,8.80
2019-04-07T05:51:53.646Z,8.80
2019-04-07T05:54:23.001Z,8.80
2019-04-07T05:56:52.597Z,8.90
2019-04-07T05:59:22.146Z,8.90
2019-04-07T06:01:54.789Z,9.00
2019-04-07T06:04:22.491Z,9.00
2019-04-07T06:06:55.004Z,9.10
2019-04-07T06:09:23.094Z,9.20
2019-04-07T06:11:52.488Z,9.30
2019-04-07T06:14:22.600Z,9.30
2019-04-07T06:16:54.231Z,9.40
2019-04-07T06:19:22.827Z,9.50
2019-04-07T06:21:52.619Z,9.50
2019-04-07T06:24:22.509Z,9.60
2019-04-07T06:26:51.723Z,9.70
2019-04-07T06:29:24.149Z,9.70
2019-04-07T06:31:52.698Z,9.70
2019-04-07T06:34:22.593Z,9.80
2019-04-07T06:36:55.201Z,9.80
2019-04-07T06:39:23.212Z,9.90
2019-04-07T06:41:52.556Z,10.00
2019-04-07T06:44:23.218Z,10.00
2019-04-07T06:47:11.940Z,10.00
2019-04-07T06:49:54.346Z,10.10
2019-04-07T06:52:42.069Z,10.20
2019-04-07T06:55:32.851Z,10.30
2019-04-07T06:58:13.083Z,10.40
2019-04-07T07:01:05.904Z,10.50
2019-04-07T07:03:48.546Z,10.50
2019-04-07T07:06:37.303Z,10.60
2019-04-07T07:09:27.838Z,10.60
2019-04-07T07:12:19.177Z,10.70
2019-04-07T07:14:58.273Z,10.80
2019-04-07T07:17:51.053Z,10.90
2019-04-07T07:20:40.533Z,10.90
2019-04-07T07:23:15.086Z,11.00
2019-04-07T07:25:45.436Z,11.10
2019-04-07T07:28:14.775Z,11.10
2019-04-07T07:30:45.296Z,11.20
2019-04-07T07:33:14.865Z,11.20
2019-04-07T07:35:48.806Z,11.30
2019-04-07T07:38:15.277Z,11.40
2019-04-07T07:40:44.990Z,11.40
2019-04-07T07:43:15.506Z,11.50
2019-04-07T07:45:48.048Z,11.60
2019-04-07T07:48:16.369Z,11.70
2019-04-07T07:50:45.832Z,11.70
2019-04-07T07:53:15.787Z,11.80
2019-04-07T07:55:45.548Z,11.80
2019-04-07T07:58:15.690Z,11.90
2019-04-07T08:00:45.993Z,12.00
2019-04-07T08:03:15.481Z,12.10
2019-04-07T08:05:45.470Z,12.10
2019-04-07T08:08:15.679Z,12.20
2019-04-07T08:10:46.274Z,12.20
2019-04-07T08:13:15.658Z,12.30
2019-04-07T08:15:45.772Z,12.40
2019-04-07T08:18:15.677Z,12.40
2019-04-07T08:20:46.009Z,12.40
2019-04-07T08:23:15.542Z,12.50
2019-04-07T08:25:45.559Z,12.60
2019-04-07T08:28:15.718Z,12.60
2019-04-07T08:30:47.656Z,12.70
2019-04-07T08:33:16.899Z,12.70
2019-04-07T08:35:46.835Z,12.80
2019-04-07T08:38:19.223Z,12.80
2019-04-07T08:40:47.843Z,12.90
2019-04-07T08:43:21.351Z,12.90
2019-04-07T08:45:48.248Z,13.00
2019-04-07T08:48:19.393Z,13.00
2019-04-07T08:50:48.614Z,13.10
2019-04-07T08:53:18.392Z,13.20
2019-04-07T08:55:49.734Z,13.20
2019-04-07T08:58:25.677Z,13.30
2019-04-07T09:00:53.055Z,13.30
2019-04-07T09:03:22.009Z,13.40
2019-04-07T09:05:51.484Z,13.40
2019-04-07T09:08:20.940Z,13.50
2019-04-07T09:10:56.582Z,13.50
2019-04-07T09:13:25.947Z,13.60
2019-04-07T09:16:16.229Z,13.70
2019-04-07T09:19:01.863Z,13.80
2019-04-07T09:21:40.355Z,13.80
2019-04-07T09:24:33.955Z,13.90
2019-04-07T09:27:23.008Z,14.00
2019-04-07T09:29:57.827Z,14.00
2019-04-07T09:32:35.939Z,14.10
2019-04-07T09:35:25.718Z,14.20
2019-04-07T09:38:13.100Z,14.20
2019-04-07T09:41:01.664Z,14.30
2019-04-07T09:43:53.638Z,14.40
2019-04-07T09:46:36.623Z,14.40
2019-04-07T09:49:25.739Z,14.50
2019-04-07T09:52:20.832Z,14.60
2019-04-07T09:55:14.120Z,14.70
2019-04-07T09:58:09.316Z,14.70
2019-04-07T10:00:45.439Z,14.80
2019-04-07T10:03:52.166Z,14.80
2019-04-07T10:06:39.100Z,14.90
2019-04-07T10:09:19.537Z,14.90
2019-04-07T10:12:11.174Z,15.00
2019-04-07T10:15:08.554Z,15.00
2019-04-07T10:17:47.761Z,15.10
2019-04-07T10:20:42.232Z,15.20
2019-04-07T10:23:27.273Z,15.20
2019-04-07T10:26:12.904Z,15.30
2019-04-07T10:28:56.909Z,15.40
2019-04-07T10:31:38.337Z,15.40
2019-04-07T10:34:25.996Z,15.50
2019-04-07T10:37:13.505Z,15.60
2019-04-07T10:40:18.895Z,15.70
2019-04-07T10:43:04.148Z,15.70
2019-04-07T10:46:01.267Z,15.80
2019-04-07T10:48:44.466Z,15.90
2019-04-07T10:51:30.849Z,16.00
2019-04-07T10:54:19.876Z,16.10
2019-04-07T10:57:05.333Z,16.10
2019-04-07T11:00:12.041Z,16.30
2019-04-07T11:03:08.365Z,16.70
2019-04-07T11:09:00.261Z,18.00
2019-04-07T11:11:49.210Z,18.70
2019-04-07T11:14:44.464Z,19.20
2019-04-07T11:17:27.276Z,19.60
2019-04-07T11:20:11.616Z,20.00
2019-04-07T11:23:13.000Z,20.30
2019-04-07T11:26:00.607Z,20.50
2019-04-07T11:28:44.595Z,20.90
2019-04-07T11:31:32.188Z,21.20
2019-04-07T11:34:19.403Z,21.50
2019-04-07T11:37:12.847Z,21.70
2019-04-07T11:40:17.215Z,21.80
2019-04-07T11:43:08.791Z,22.10
2019-04-07T11:46:01.295Z,22.30
2019-04-07T11:48:44.976Z,22.50
2019-04-07T11:51:19.514Z,22.60
2019-04-07T11:54:19.902Z,22.70
2019-04-07T11:57:08.687Z,22.80
2019-04-07T12:00:15.969Z,22.90
2019-04-07T12:03:07.177Z,22.90
2019-04-07T12:05:48.424Z,23.00
2019-04-07T12:08:42.723Z,23.10
2019-04-07T12:11:25.920Z,23.10
2019-04-07T12:14:18.049Z,23.20
2019-04-07T12:17:13.747Z,23.20
2019-04-07T12:20:15.157Z,23.20
2019-04-07T12:22:56.531Z,23.10
2019-04-07T12:25:52.748Z,23.20
2019-04-07T12:28:38.905Z,23.20
2019-04-07T12:31:30.278Z,23.40
2019-04-07T12:34:18.990Z,23.50
2019-04-07T12:37:06.878Z,23.70
2019-04-07T12:39:54.376Z,23.70
2019-04-07T12:42:43.396Z,23.70
2019-04-07T12:45:30.713Z,23.80
2019-04-07T12:48:25.874Z,24.20
2019-04-07T12:51:12.396Z,24.40
2019-04-07T12:54:07.308Z,24.60
2019-04-07T12:56:46.685Z,24.70
2019-04-07T12:59:34.701Z,24.90
2019-04-07T13:02:23.901Z,25.10
2019-04-07T13:05:06.080Z,25.20
2019-04-07T13:07:41.943Z,25.50
2019-04-07T13:10:34.327Z,25.90
2019-04-07T13:13:33.747Z,26.10
2019-04-07T13:16:23.693Z,26.20
2019-04-07T13:19:15.409Z,26.40
2019-04-07T13:22:07.954Z,26.70
2019-04-07T13:24:48.152Z,27.00
2019-04-07T13:27:38.866Z,27.20
2019-04-07T13:30:45.633Z,27.40
2019-04-07T13:33:33.002Z,27.70
2019-04-07T13:36:20.316Z,28.00
2019-04-07T13:39:00.929Z,28.10
2019-04-07T13:42:01.060Z,28.30
2019-04-07T13:45:02.933Z,28.10
2019-04-07T13:47:57.898Z,27.90
2019-04-07T13:50:50.159Z,27.70
2019-04-07T13:53:37.872Z,27.50
2019-04-07T13:56:15.589Z,27.10
2019-04-07T13:59:09.190Z,26.90
2019-04-07T14:01:50.601Z,26.80
2019-04-07T14:04:44.572Z,26.80
2019-04-07T14:07:35.232Z,26.90
2019-04-07T14:10:31.794Z,27.00
2019-04-07T14:13:19.993Z,27.00
2019-04-07T14:16:07.453Z,27.00
2019-04-07T14:18:46.832Z,27.10
2019-04-07T14:21:30.690Z,27.30
2019-04-07T14:24:16.486Z,27.40
2019-04-07T14:27:03.313Z,27.50
2019-04-07T14:29:50.158Z,27.40
2019-04-07T14:32:38.790Z,27.10
2019-04-07T14:35:18.389Z,27.00
2019-04-07T14:38:06.849Z,27.00
2019-04-07T14:40:58.862Z,26.90
2019-04-07T14:43:46.358Z,26.80
2019-04-07T14:46:29.429Z,26.60
2019-04-07T14:49:24.650Z,26.60
2019-04-07T14:52:16.342Z,26.60
2019-04-07T14:55:04.827Z,26.60
2019-04-07T14:57:53.574Z,26.70
2019-04-07T15:00:39.745Z,26.80
2019-04-07T15:03:09.389Z,26.90
2019-04-07T15:05:41.676Z,27.10
2019-04-07T15:08:16.941Z,27.10
2019-04-07T15:10:50.053Z,27.10
2019-04-07T15:13:25.790Z,27.20
2019-04-07T15:15:52.774Z,27.20
2019-04-07T15:18:22.908Z,27.10
2019-04-07T15:20:52.776Z,26.80
2019-04-07T15:23:22.915Z,26.50
2019-04-07T15:25:52.781Z,26.40
2019-04-07T15:28:22.570Z,26.40
2019-04-07T15:30:52.022Z,26.30
2019-04-07T15:33:22.236Z,26.20
2019-04-07T15:35:52.392Z,26.00
2019-04-07T15:38:24.822Z,26.00
2019-04-07T15:40:53.219Z,26.10
2019-04-07T15:43:22.508Z,26.10
2019-04-07T15:45:52.256Z,26.10
2019-04-07T15:48:25.767Z,26.10
2019-04-07T15:50:52.884Z,26.10
2019-04-07T15:53:22.263Z,26.00
2019-04-07T15:56:01.808Z,26.00
2019-04-07T15:58:22.611Z,26.00
2019-04-07T16:00:51.945Z,25.90
2019-04-07T16:03:21.235Z,25.80
2019-04-07T16:05:51.278Z,25.70
2019-04-07T16:08:20.574Z,25.40
2019-04-07T16:10:52.047Z,24.90
2019-04-07T16:13:21.671Z,24.50
2019-04-07T16:15:53.673Z,24.00
2019-04-07T16:18:22.154Z,23.80
2019-04-07T16:20:51.723Z,23.50
2019-04-07T16:23:21.122Z,23.20
2019-04-07T16:25:52.314Z,23.00
2019-04-07T16:28:21.699Z,22.90
2019-04-07T16:30:52.081Z,22.80
2019-04-07T16:33:21.746Z,22.80
2019-04-07T16:35:55.145Z,22.90
2019-04-07T16:38:22.042Z,22.90
2019-04-07T16:40:51.307Z,23.00
2019-04-07T16:43:20.604Z,22.90
2019-04-07T16:45:50.649Z,22.90
2019-04-07T16:48:20.792Z,22.80
2019-04-07T16:50:53.314Z,22.80
2019-04-07T16:53:21.181Z,22.60
2019-04-07T16:55:54.945Z,22.50
2019-04-07T16:58:22.178Z,22.30
2019-04-07T17:00:52.471Z,22.30
2019-04-07T17:03:21.798Z,22.10
2019-04-07T17:05:55.681Z,22.00
2019-04-07T17:08:23.367Z,21.80
2019-04-07T17:10:53.777Z,21.70
2019-04-07T17:13:31.405Z,21.50
2019-04-07T17:15:55.158Z,21.30
2019-04-07T17:18:43.090Z,21.20
2019-04-07T17:21:15.628Z,21.00
2019-04-07T17:23:45.654Z,20.80
2019-04-07T17:26:14.983Z,20.60
2019-04-07T17:28:45.204Z,20.40
2019-04-07T17:31:15.392Z,20.20
2019-04-07T17:33:45.574Z,20.00
2019-04-07T17:36:17.630Z,19.90
2019-04-07T17:39:06.831Z,19.70
2019-04-07T17:41:35.922Z,19.60
2019-04-07T17:44:24.865Z,19.40
2019-04-07T17:47:27.903Z,19.30
2019-04-07T17:50:33.966Z,19.20
2019-04-07T17:53:32.653Z,19.00
2019-04-07T17:56:19.972Z,18.90
2019-04-07T17:59:00.544Z,18.80
2019-04-07T18:01:47.322Z,18.70
2019-04-07T18:04:35.793Z,18.50
2019-04-07T18:07:36.163Z,18.30
2019-04-07T18:10:23.452Z,18.10
2019-04-07T18:13:15.733Z,18.00
2019-04-07T18:16:06.491Z,17.80
2019-04-07T18:18:58.014Z,17.70
2019-04-07T18:21:44.954Z,17.70
2019-04-07T18:24:30.593Z,17.60
2019-04-07T18:27:25.604Z,17.50
2019-04-07T18:30:14.571Z,17.40
2019-04-07T18:32:53.572Z,17.30
2019-04-07T18:35:32.783Z,17.10
2019-04-07T18:38:12.237Z,17.10
2019-04-07T18:41:01.405Z,17.00
2019-04-07T18:44:06.364Z,16.90
2019-04-07T18:47:04.778Z,16.90
2019-04-07T18:49:53.856Z,16.80
2019-04-07T18:52:53.331Z,16.60
2019-04-07T18:55:48.779Z,16.40
2019-04-07T18:58:35.858Z,16.30
2019-04-07T19:01:16.988Z,16.20
2019-04-07T19:04:04.899Z,16.20
2019-04-07T19:06:55.842Z,16.00
2019-04-07T19:09:42.347Z,15.90
2019-04-07T19:12:20.737Z,15.80
2019-04-07T19:15:09.205Z,15.70
2019-04-07T19:18:06.200Z,15.70
2019-04-07T19:21:09.916Z,15.60
2019-04-07T19:23:52.838Z,15.60
2019-04-07T19:27:11.913Z,15.50
2019-04-07T19:29:48.738Z,15.50
2019-04-07T19:32:44.210Z,15.40
2019-04-07T19:35:40.893Z,15.30
2019-04-07T19:38:27.341Z,15.20
2019-04-07T19:41:21.504Z,15.20
2019-04-07T19:44:37.115Z,15.10
2019-04-07T19:47:20.735Z,15.00
2019-04-07T19:50:12.484Z,14.80
2019-04-07T19:52:59.618Z,14.70
2019-04-07T19:55:54.621Z,14.60
2019-04-07T19:58:43.468Z,14.50
2019-04-07T20:01:34.676Z,14.40
2019-04-07T20:04:16.375Z,14.40
2019-04-07T20:07:03.212Z,14.40
2019-04-07T20:10:03.044Z,14.40
2019-04-07T20:12:42.665Z,14.40
2019-04-07T20:15:45.680Z,14.40
2019-04-07T20:18:26.492Z,14.40
2019-04-07T20:21:37.395Z,14.40
2019-04-07T20:24:19.536Z,14.40
2019-04-07T20:27:08.800Z,14.50
2019-04-07T20:29:50.048Z,14.40
2019-04-07T20:32:39.174Z,14.40
2019-04-07T20:35:37.180Z,14.40
2019-04-07T20:38:35.762Z,14.40
2019-04-07T20:41:14.242Z,14.40
2019-04-07T20:43:59.191Z,14.40
2019-04-07T20:47:00.759Z,14.30
2019-04-07T20:49:58.945Z,14.30
2019-04-07T20:53:08.397Z,14.30
2019-04-07T20:55:41.354Z,14.20
2019-04-07T20:58:48.717Z,14.20
2019-04-07T21:01:33.361Z,14.20
2019-04-07T21:04:21.822Z,14.10
2019-04-07T21:07:19.127Z,14.00
2019-04-07T21:10:11.199Z,14.00
2019-04-07T21:13:05.363Z,13.90
2019-04-07T21:15:53.043Z,13.90
2019-04-07T21:19:04.152Z,13.80
2019-04-07T21:21:49.979Z,13.70
2019-04-07T21:24:44.143Z,13.70
2019-04-07T21:27:34.667Z,13.60
2019-04-07T21:30:08.643Z,13.60
2019-04-07T21:33:15.475Z,13.50
2019-04-07T21:36:09.133Z,13.40
2019-04-07T21:39:07.825Z,13.40
2019-04-07T21:41:54.626Z,13.30
2019-04-07T21:44:42.980Z,13.20
2019-04-07T21:47:30.922Z,13.20
2019-04-07T21:50:21.891Z,13.20
2019-04-07T21:53:12.181Z,13.10
2019-04-07T21:55:53.238Z,13.10
2019-04-07T21:58:29.448Z,13.00
2019-04-07T22:01:09.892Z,12.90
2019-04-07T22:03:53.390Z,12.80
2019-04-07T22:07:00.134Z,12.80
2019-04-07T22:09:39.486Z,12.70
2019-04-07T22:12:08.775Z,12.70
2019-04-07T22:14:40.943Z,12.60
2019-04-07T22:17:09.481Z,12.60
2019-04-07T22:19:44.120Z,12.50
2019-04-07T22:22:10.669Z,12.40
2019-04-07T22:24:40.257Z,12.30
2019-04-07T22:27:09.665Z,12.30
2019-04-07T22:29:39.058Z,12.20
2019-04-07T22:32:08.321Z,12.20
2019-04-07T22:34:37.730Z,12.20
2019-04-07T22:37:07.079Z,12.10
2019-04-07T22:39:37.574Z,12.10
2019-04-07T22:42:06.969Z,12.00
2019-04-07T22:44:36.363Z,11.90
2019-04-07T22:47:05.797Z,11.90
2019-04-07T22:49:35.629Z,11.80
2019-04-07T22:52:05.519Z,11.70
2019-04-07T22:54:34.922Z,11.60
2019-04-07T22:57:06.139Z,11.60
2019-04-07T22:59:35.265Z,11.60
2019-04-07T23:02:05.329Z,11.60
2019-04-07T23:04:36.313Z,11.60
2019-04-07T23:07:06.161Z,11.60
2019-04-07T23:09:35.525Z,11.50
2019-04-07T23:12:04.809Z,11.50
2019-04-07T23:14:34.185Z,11.50
2019-04-07T23:17:03.790Z,11.50
2019-04-07T23:19:33.106Z,11.50
2019-04-07T23:22:03.202Z,11.50
2019-04-07T23:24:32.579Z,11.50
2019-04-07T23:27:01.968Z,11.40
2019-04-07T23:29:31.246Z,11.30
2019-04-07T23:32:00.633Z,11.30
2019-04-07T23:34:30.983Z,11.20
2019-04-07T23:37:00.613Z,11.20
2019-04-07T23:39:30.002Z,11.20
2019-04-07T23:42:00.664Z,11.10
2019-04-07T23:44:30.081Z,11.10
2019-04-07T23:46:59.468Z,11.00
2019-04-07T23:49:28.800Z,11.00
2019-04-07T23:51:58.128Z,11.00
2019-04-07T23:54:27.432Z,10.90
2019-04-07T23:56:56.816Z,10.90
2019-04-07T23:59:26.963Z,10.90
